sensor_id;sensor_type;location;lat;lon;timestamp;temperature;humidity
30186;DHT22;31152;49.190;8.122;2023-07-16T00:00:29;19.30;99.90
30186;DHT22;31152;49.190;8.122;2023-07-16T00:02:55;19.20;99.90
30186;DHT22;31152;49.190;8.122;2023-07-16T00:05:22;19.20;99.90
30186;DHT22;31152;49.190;8.122;2023-07-16T00:07:49;19.20;99.90
30186;DHT22;31152;49.190;8.122;2023-07-16T00:10:16;19.20;99.90
30186;DHT22;31152;49.190;8.122;2023-07-16T00:12:43;19.10;99.90
30186;DHT22;31152;49.190;8.122;2023-07-16T00:15:10;19.10;99.90
30186;DHT22;31152;49.190;8.122;2023-07-16T00:17:37;19.00;99.90
30186;DHT22;31152;49.190;8.122;2023-07-16T00:20:04;18.90;99.90
30186;DHT22;31152;49.190;8.122;2023-07-16T00:22:34;18.90;99.90
30186;DHT22;31152;49.190;8.122;2023-07-16T00:25:01;18.90;99.90
30186;DHT22;31152;49.190;8.122;2023-07-16T00:27:29;18.90;99.90
30186;DHT22;31152;49.190;8.122;2023-07-16T00:29:55;18.80;99.90
30186;DHT22;31152;49.190;8.122;2023-07-16T00:32:22;18.80;99.90
30186;DHT22;31152;49.190;8.122;2023-07-16T00:34:49;18.80;99.90
30186;DHT22;31152;49.190;8.122;2023-07-16T00:37:16;18.70;99.90
30186;DHT22;31152;49.190;8.122;2023-07-16T00:39:42;18.70;99.90
30186;DHT22;31152;49.190;8.122;2023-07-16T00:42:09;18.70;99.90
30186;DHT22;31152;49.190;8.122;2023-07-16T00:44:36;18.60;99.90
30186;DHT22;31152;49.190;8.122;2023-07-16T00:47:03;18.50;99.90
30186;DHT22;31152;49.190;8.122;2023-07-16T00:49:30;18.50;99.90
30186;DHT22;31152;49.190;8.122;2023-07-16T00:51:59;18.50;99.90
30186;DHT22;31152;49.190;8.122;2023-07-16T00:54:27;18.50;99.90
30186;DHT22;31152;49.190;8.122;2023-07-16T00:56:55;18.40;99.90
30186;DHT22;31152;49.190;8.122;2023-07-16T00:59:24;18.40;99.90
30186;DHT22;31152;49.190;8.122;2023-07-16T01:01:50;18.40;99.90
30186;DHT22;31152;49.190;8.122;2023-07-16T01:04:17;18.30;99.90
30186;DHT22;31152;49.190;8.122;2023-07-16T01:06:48;18.40;99.90
30186;DHT22;31152;49.190;8.122;2023-07-16T01:09:18;18.40;99.90
30186;DHT22;31152;49.190;8.122;2023-07-16T01:11:46;18.30;99.90
30186;DHT22;31152;49.190;8.122;2023-07-16T01:14:14;18.30;99.90
30186;DHT22;31152;49.190;8.122;2023-07-16T01:16:42;18.30;99.90
30186;DHT22;31152;49.190;8.122;2023-07-16T01:19:11;18.30;99.90
30186;DHT22;31152;49.190;8.122;2023-07-16T01:22:39;18.20;99.90
30186;DHT22;31152;49.190;8.122;2023-07-16T01:25:35;18.20;99.90
30186;DHT22;31152;49.190;8.122;2023-07-16T01:30:54;18.10;99.90
30186;DHT22;31152;49.190;8.122;2023-07-16T01:33:22;18.00;99.90
30186;DHT22;31152;49.190;8.122;2023-07-16T01:35:51;18.00;99.90
30186;DHT22;31152;49.190;8.122;2023-07-16T01:38:18;18.00;99.90
30186;DHT22;31152;49.190;8.122;2023-07-16T01:40:45;17.90;99.90
30186;DHT22;31152;49.190;8.122;2023-07-16T01:43:12;17.90;99.90
30186;DHT22;31152;49.190;8.122;2023-07-16T01:45:39;17.90;99.90
30186;DHT22;31152;49.190;8.122;2023-07-16T01:48:22;17.90;99.90
30186;DHT22;31152;49.190;8.122;2023-07-16T01:50:51;17.90;99.90
30186;DHT22;31152;49.190;8.122;2023-07-16T01:53:17;17.90;99.90
30186;DHT22;31152;49.190;8.122;2023-07-16T01:55:44;17.80;99.90
30186;DHT22;31152;49.190;8.122;2023-07-16T01:58:11;17.80;99.90
30186;DHT22;31152;49.190;8.122;2023-07-16T02:00:39;17.80;99.90
30186;DHT22;31152;49.190;8.122;2023-07-16T02:03:08;17.80;99.90
30186;DHT22;31152;49.190;8.122;2023-07-16T02:05:35;17.70;99.90
30186;DHT22;31152;49.190;8.122;2023-07-16T02:08:04;17.60;99.90
30186;DHT22;31152;49.190;8.122;2023-07-16T02:10:33;17.60;99.90
30186;DHT22;31152;49.190;8.122;2023-07-16T02:13:01;17.60;99.90
30186;DHT22;31152;49.190;8.122;2023-07-16T02:15:27;17.60;99.90
30186;DHT22;31152;49.190;8.122;2023-07-16T02:17:54;17.60;99.90
30186;DHT22;31152;49.190;8.122;2023-07-16T02:20:21;17.50;99.90
30186;DHT22;31152;49.190;8.122;2023-07-16T02:22:47;17.50;99.90
30186;DHT22;31152;49.190;8.122;2023-07-16T02:25:14;17.60;99.90
30186;DHT22;31152;49.190;8.122;2023-07-16T02:27:41;17.50;99.90
30186;DHT22;31152;49.190;8.122;2023-07-16T02:30:08;17.60;99.90
30186;DHT22;31152;49.190;8.122;2023-07-16T02:32:35;17.50;99.90
30186;DHT22;31152;49.190;8.122;2023-07-16T02:35:02;17.40;99.90
30186;DHT22;31152;49.190;8.122;2023-07-16T02:37:32;17.40;99.90
30186;DHT22;31152;49.190;8.122;2023-07-16T02:39:59;17.50;99.90
30186;DHT22;31152;49.190;8.122;2023-07-16T02:42:26;17.50;99.90
30186;DHT22;31152;49.190;8.122;2023-07-16T02:44:52;17.40;99.90
30186;DHT22;31152;49.190;8.122;2023-07-16T02:47:19;17.40;99.90
30186;DHT22;31152;49.190;8.122;2023-07-16T02:49:46;17.40;99.90
30186;DHT22;31152;49.190;8.122;2023-07-16T02:52:13;17.40;99.90
30186;DHT22;31152;49.190;8.122;2023-07-16T02:54:39;17.40;99.90
30186;DHT22;31152;49.190;8.122;2023-07-16T02:57:06;17.40;99.90
30186;DHT22;31152;49.190;8.122;2023-07-16T02:59:33;17.40;99.90
30186;DHT22;31152;49.190;8.122;2023-07-16T03:02:00;17.30;99.90
30186;DHT22;31152;49.190;8.122;2023-07-16T03:04:26;17.30;99.90
30186;DHT22;31152;49.190;8.122;2023-07-16T03:06:53;17.30;99.90
30186;DHT22;31152;49.190;8.122;2023-07-16T03:09:20;17.30;99.90
30186;DHT22;31152;49.190;8.122;2023-07-16T03:11:47;17.20;99.90
30186;DHT22;31152;49.190;8.122;2023-07-16T03:14:13;17.20;99.90
30186;DHT22;31152;49.190;8.122;2023-07-16T03:16:40;17.20;99.90
30186;DHT22;31152;49.190;8.122;2023-07-16T03:19:07;17.20;99.90
30186;DHT22;31152;49.190;8.122;2023-07-16T03:21:36;17.10;99.90
30186;DHT22;31152;49.190;8.122;2023-07-16T03:24:03;17.20;99.90
30186;DHT22;31152;49.190;8.122;2023-07-16T03:26:30;17.20;99.90
30186;DHT22;31152;49.190;8.122;2023-07-16T03:28:56;17.20;99.90
30186;DHT22;31152;49.190;8.122;2023-07-16T03:31:23;17.10;99.90
30186;DHT22;31152;49.190;8.122;2023-07-16T03:33:55;17.10;99.90
30186;DHT22;31152;49.190;8.122;2023-07-16T03:36:21;17.10;99.90
30186;DHT22;31152;49.190;8.122;2023-07-16T03:38:50;17.10;99.90
30186;DHT22;31152;49.190;8.122;2023-07-16T03:41:17;17.20;99.90
30186;DHT22;31152;49.190;8.122;2023-07-16T03:43:44;17.10;99.90
30186;DHT22;31152;49.190;8.122;2023-07-16T03:46:10;17.10;99.90
30186;DHT22;31152;49.190;8.122;2023-07-16T03:48:37;17.10;99.90
30186;DHT22;31152;49.190;8.122;2023-07-16T03:51:04;17.10;99.90
30186;DHT22;31152;49.190;8.122;2023-07-16T03:53:31;17.10;99.90
30186;DHT22;31152;49.190;8.122;2023-07-16T03:55:57;17.10;99.90
30186;DHT22;31152;49.190;8.122;2023-07-16T03:58:24;17.10;99.90
30186;DHT22;31152;49.190;8.122;2023-07-16T04:00:51;17.00;99.90
30186;DHT22;31152;49.190;8.122;2023-07-16T04:03:18;17.00;99.90
30186;DHT22;31152;49.190;8.122;2023-07-16T04:05:47;17.10;99.90
30186;DHT22;31152;49.190;8.122;2023-07-16T04:08:14;17.10;99.90
30186;DHT22;31152;49.190;8.122;2023-07-16T04:10:41;17.20;99.90
30186;DHT22;31152;49.190;8.122;2023-07-16T04:13:10;17.10;99.90
30186;DHT22;31152;49.190;8.122;2023-07-16T04:15:37;17.20;99.90
30186;DHT22;31152;49.190;8.122;2023-07-16T04:18:06;17.20;99.90
30186;DHT22;31152;49.190;8.122;2023-07-16T04:20:33;17.20;99.90
30186;DHT22;31152;49.190;8.122;2023-07-16T04:23:00;17.20;99.90
30186;DHT22;31152;49.190;8.122;2023-07-16T04:25:27;17.20;99.90
30186;DHT22;31152;49.190;8.122;2023-07-16T04:27:54;17.20;99.90
30186;DHT22;31152;49.190;8.122;2023-07-16T04:30:21;17.10;99.90
30186;DHT22;31152;49.190;8.122;2023-07-16T04:32:48;17.20;99.90
30186;DHT22;31152;49.190;8.122;2023-07-16T04:35:15;17.20;99.90
30186;DHT22;31152;49.190;8.122;2023-07-16T04:37:42;17.10;99.90
30186;DHT22;31152;49.190;8.122;2023-07-16T04:40:08;17.10;99.90
30186;DHT22;31152;49.190;8.122;2023-07-16T04:42:35;17.00;99.90
30186;DHT22;31152;49.190;8.122;2023-07-16T04:45:03;17.00;99.90
30186;DHT22;31152;49.190;8.122;2023-07-16T04:47:30;16.90;99.90
30186;DHT22;31152;49.190;8.122;2023-07-16T04:50:00;16.90;99.90
30186;DHT22;31152;49.190;8.122;2023-07-16T04:52:27;16.90;99.90
30186;DHT22;31152;49.190;8.122;2023-07-16T04:54:56;16.90;99.90
30186;DHT22;31152;49.190;8.122;2023-07-16T04:57:25;16.90;99.90
30186;DHT22;31152;49.190;8.122;2023-07-16T04:59:53;17.00;99.90
30186;DHT22;31152;49.190;8.122;2023-07-16T05:02:23;16.90;99.90
30186;DHT22;31152;49.190;8.122;2023-07-16T05:04:49;17.00;99.90
30186;DHT22;31152;49.190;8.122;2023-07-16T05:07:16;17.00;99.90
30186;DHT22;31152;49.190;8.122;2023-07-16T05:09:43;17.00;99.90
30186;DHT22;31152;49.190;8.122;2023-07-16T05:12:12;17.00;99.90
30186;DHT22;31152;49.190;8.122;2023-07-16T05:14:47;17.10;99.90
30186;DHT22;31152;49.190;8.122;2023-07-16T05:17:14;17.10;99.90
30186;DHT22;31152;49.190;8.122;2023-07-16T05:19:43;17.10;99.90
30186;DHT22;31152;49.190;8.122;2023-07-16T05:22:15;17.20;99.90
30186;DHT22;31152;49.190;8.122;2023-07-16T05:24:41;17.20;99.90
30186;DHT22;31152;49.190;8.122;2023-07-16T05:27:08;17.20;99.90
30186;DHT22;31152;49.190;8.122;2023-07-16T05:29:35;17.30;99.90
30186;DHT22;31152;49.190;8.122;2023-07-16T05:32:02;17.40;99.90
30186;DHT22;31152;49.190;8.122;2023-07-16T05:34:29;17.40;99.90
30186;DHT22;31152;49.190;8.122;2023-07-16T05:36:56;17.50;99.90
30186;DHT22;31152;49.190;8.122;2023-07-16T05:39:25;17.40;99.90
30186;DHT22;31152;49.190;8.122;2023-07-16T05:41:52;17.50;99.90
30186;DHT22;31152;49.190;8.122;2023-07-16T05:44:18;17.50;99.90
30186;DHT22;31152;49.190;8.122;2023-07-16T05:46:48;17.50;99.90
30186;DHT22;31152;49.190;8.122;2023-07-16T05:49:15;17.60;99.90
30186;DHT22;31152;49.190;8.122;2023-07-16T05:51:42;17.70;99.90
30186;DHT22;31152;49.190;8.122;2023-07-16T05:54:09;17.70;99.90
30186;DHT22;31152;49.190;8.122;2023-07-16T05:56:36;17.80;99.90
30186;DHT22;31152;49.190;8.122;2023-07-16T05:59:02;17.80;99.90
30186;DHT22;31152;49.190;8.122;2023-07-16T06:01:29;17.90;99.90
30186;DHT22;31152;49.190;8.122;2023-07-16T06:03:56;17.70;99.90
30186;DHT22;31152;49.190;8.122;2023-07-16T06:06:23;18.00;99.90
30186;DHT22;31152;49.190;8.122;2023-07-16T06:08:49;18.30;99.90
30186;DHT22;31152;49.190;8.122;2023-07-16T06:11:16;18.40;99.90
30186;DHT22;31152;49.190;8.122;2023-07-16T06:13:43;18.50;99.90
30186;DHT22;31152;49.190;8.122;2023-07-16T06:16:10;18.60;99.90
30186;DHT22;31152;49.190;8.122;2023-07-16T06:18:36;18.70;99.90
30186;DHT22;31152;49.190;8.122;2023-07-16T06:21:03;18.70;99.90
30186;DHT22;31152;49.190;8.122;2023-07-16T06:23:30;18.60;99.90
30186;DHT22;31152;49.190;8.122;2023-07-16T06:25:57;18.60;99.90
30186;DHT22;31152;49.190;8.122;2023-07-16T06:28:24;18.80;99.90
30186;DHT22;31152;49.190;8.122;2023-07-16T06:30:51;18.60;99.90
30186;DHT22;31152;49.190;8.122;2023-07-16T06:33:23;18.60;99.90
30186;DHT22;31152;49.190;8.122;2023-07-16T06:35:51;18.50;99.90
30186;DHT22;31152;49.190;8.122;2023-07-16T06:38:18;18.30;99.90
30186;DHT22;31152;49.190;8.122;2023-07-16T06:40:51;18.40;99.90
30186;DHT22;31152;49.190;8.122;2023-07-16T06:43:18;18.40;99.90
30186;DHT22;31152;49.190;8.122;2023-07-16T06:45:45;18.50;99.90
30186;DHT22;31152;49.190;8.122;2023-07-16T06:48:12;18.50;99.90
30186;DHT22;31152;49.190;8.122;2023-07-16T06:50:39;18.60;99.90
30186;DHT22;31152;49.190;8.122;2023-07-16T06:53:06;18.50;99.90
30186;DHT22;31152;49.190;8.122;2023-07-16T06:55:37;18.50;99.90
30186;DHT22;31152;49.190;8.122;2023-07-16T06:58:04;18.50;99.90
30186;DHT22;31152;49.190;8.122;2023-07-16T07:00:31;18.70;99.90
30186;DHT22;31152;49.190;8.122;2023-07-16T07:02:58;18.70;99.90
30186;DHT22;31152;49.190;8.122;2023-07-16T07:05:25;18.60;99.90
30186;DHT22;31152;49.190;8.122;2023-07-16T07:07:52;18.60;99.90
30186;DHT22;31152;49.190;8.122;2023-07-16T07:10:19;18.70;99.90
30186;DHT22;31152;49.190;8.122;2023-07-16T07:12:46;18.80;99.90
30186;DHT22;31152;49.190;8.122;2023-07-16T07:15:13;18.80;99.90
30186;DHT22;31152;49.190;8.122;2023-07-16T07:17:40;18.90;99.90
30186;DHT22;31152;49.190;8.122;2023-07-16T07:20:09;19.00;99.90
30186;DHT22;31152;49.190;8.122;2023-07-16T07:22:36;19.10;99.90
30186;DHT22;31152;49.190;8.122;2023-07-16T07:25:04;19.20;99.90
30186;DHT22;31152;49.190;8.122;2023-07-16T07:27:31;19.20;99.90
30186;DHT22;31152;49.190;8.122;2023-07-16T07:29:58;19.10;99.90
30186;DHT22;31152;49.190;8.122;2023-07-16T07:32:25;19.10;99.90
30186;DHT22;31152;49.190;8.122;2023-07-16T07:34:51;19.00;99.90
30186;DHT22;31152;49.190;8.122;2023-07-16T07:37:18;19.00;99.90
30186;DHT22;31152;49.190;8.122;2023-07-16T07:39:45;19.10;99.90
30186;DHT22;31152;49.190;8.122;2023-07-16T07:42:16;19.10;99.90
30186;DHT22;31152;49.190;8.122;2023-07-16T07:44:43;19.10;99.90
30186;DHT22;31152;49.190;8.122;2023-07-16T07:47:10;19.10;99.90
30186;DHT22;31152;49.190;8.122;2023-07-16T07:49:37;19.10;99.90
30186;DHT22;31152;49.190;8.122;2023-07-16T07:52:09;19.20;99.90
30186;DHT22;31152;49.190;8.122;2023-07-16T07:54:35;19.10;99.90
30186;DHT22;31152;49.190;8.122;2023-07-16T07:57:05;19.20;99.90
30186;DHT22;31152;49.190;8.122;2023-07-16T07:59:32;19.30;99.90
30186;DHT22;31152;49.190;8.122;2023-07-16T08:01:59;19.40;99.90
30186;DHT22;31152;49.190;8.122;2023-07-16T08:04:28;19.50;99.90
30186;DHT22;31152;49.190;8.122;2023-07-16T08:06:57;19.60;99.90
30186;DHT22;31152;49.190;8.122;2023-07-16T08:09:26;19.60;99.90
30186;DHT22;31152;49.190;8.122;2023-07-16T08:11:53;19.60;99.90
30186;DHT22;31152;49.190;8.122;2023-07-16T08:14:20;19.60;99.90
30186;DHT22;31152;49.190;8.122;2023-07-16T08:16:47;19.70;99.90
30186;DHT22;31152;49.190;8.122;2023-07-16T08:19:14;19.70;99.90
30186;DHT22;31152;49.190;8.122;2023-07-16T08:21:40;19.70;99.90
30186;DHT22;31152;49.190;8.122;2023-07-16T08:24:07;19.80;99.90
30186;DHT22;31152;49.190;8.122;2023-07-16T08:26:37;19.90;99.90
30186;DHT22;31152;49.190;8.122;2023-07-16T08:29:06;20.00;99.90
30186;DHT22;31152;49.190;8.122;2023-07-16T08:31:33;20.10;99.90
30186;DHT22;31152;49.190;8.122;2023-07-16T08:34:00;20.10;99.90
30186;DHT22;31152;49.190;8.122;2023-07-16T08:36:30;20.10;99.90
30186;DHT22;31152;49.190;8.122;2023-07-16T08:38:56;20.10;99.90
30186;DHT22;31152;49.190;8.122;2023-07-16T08:41:23;20.20;99.90
30186;DHT22;31152;49.190;8.122;2023-07-16T08:43:51;20.30;99.90
30186;DHT22;31152;49.190;8.122;2023-07-16T08:46:18;20.40;99.90
30186;DHT22;31152;49.190;8.122;2023-07-16T08:48:46;20.40;99.90
30186;DHT22;31152;49.190;8.122;2023-07-16T08:51:14;20.60;99.90
30186;DHT22;31152;49.190;8.122;2023-07-16T08:53:44;20.70;99.90
30186;DHT22;31152;49.190;8.122;2023-07-16T08:56:11;20.70;99.90
30186;DHT22;31152;49.190;8.122;2023-07-16T08:58:38;20.80;99.90
30186;DHT22;31152;49.190;8.122;2023-07-16T09:01:05;20.80;99.90
30186;DHT22;31152;49.190;8.122;2023-07-16T09:03:38;20.70;99.90
30186;DHT22;31152;49.190;8.122;2023-07-16T09:06:08;20.60;99.90
30186;DHT22;31152;49.190;8.122;2023-07-16T09:08:35;20.50;99.90
30186;DHT22;31152;49.190;8.122;2023-07-16T09:11:01;20.40;99.90
30186;DHT22;31152;49.190;8.122;2023-07-16T09:13:29;20.40;99.90
30186;DHT22;31152;49.190;8.122;2023-07-16T09:15:59;20.30;99.90
30186;DHT22;31152;49.190;8.122;2023-07-16T09:18:27;20.50;99.90
30186;DHT22;31152;49.190;8.122;2023-07-16T09:20:58;20.60;99.90
30186;DHT22;31152;49.190;8.122;2023-07-16T09:23:29;20.70;99.90
30186;DHT22;31152;49.190;8.122;2023-07-16T09:25:56;20.80;99.90
30186;DHT22;31152;49.190;8.122;2023-07-16T09:28:23;20.90;99.90
30186;DHT22;31152;49.190;8.122;2023-07-16T09:30:51;21.10;99.90
30186;DHT22;31152;49.190;8.122;2023-07-16T09:33:20;21.00;99.90
30186;DHT22;31152;49.190;8.122;2023-07-16T09:35:48;21.00;99.90
30186;DHT22;31152;49.190;8.122;2023-07-16T09:38:16;21.20;99.90
30186;DHT22;31152;49.190;8.122;2023-07-16T09:40:44;21.30;99.90
30186;DHT22;31152;49.190;8.122;2023-07-16T09:43:12;21.40;99.90
30186;DHT22;31152;49.190;8.122;2023-07-16T09:45:41;21.40;99.90
30186;DHT22;31152;49.190;8.122;2023-07-16T09:48:08;21.40;99.90
30186;DHT22;31152;49.190;8.122;2023-07-16T09:50:36;21.40;99.90
30186;DHT22;31152;49.190;8.122;2023-07-16T09:53:08;21.30;99.90
30186;DHT22;31152;49.190;8.122;2023-07-16T09:55:35;21.30;99.90
30186;DHT22;31152;49.190;8.122;2023-07-16T09:58:07;21.30;99.90
30186;DHT22;31152;49.190;8.122;2023-07-16T10:00:36;21.50;99.90
30186;DHT22;31152;49.190;8.122;2023-07-16T10:03:07;21.70;99.90
30186;DHT22;31152;49.190;8.122;2023-07-16T10:05:37;21.90;99.90
30186;DHT22;31152;49.190;8.122;2023-07-16T10:08:04;22.00;99.90
30186;DHT22;31152;49.190;8.122;2023-07-16T10:10:42;22.30;98.80
30186;DHT22;31152;49.190;8.122;2023-07-16T10:13:12;22.50;98.60
30186;DHT22;31152;49.190;8.122;2023-07-16T10:15:49;22.70;96.60
30186;DHT22;31152;49.190;8.122;2023-07-16T10:18:31;22.70;95.30
30186;DHT22;31152;49.190;8.122;2023-07-16T10:21:07;22.60;94.30
30186;DHT22;31152;49.190;8.122;2023-07-16T10:23:42;22.60;94.20
30186;DHT22;31152;49.190;8.122;2023-07-16T10:26:14;22.60;93.90
30186;DHT22;31152;49.190;8.122;2023-07-16T10:28:46;22.80;94.00
30186;DHT22;31152;49.190;8.122;2023-07-16T10:31:22;22.90;92.40
30186;DHT22;31152;49.190;8.122;2023-07-16T10:34:03;22.70;92.00
30186;DHT22;31152;49.190;8.122;2023-07-16T10:36:38;22.70;91.90
30186;DHT22;31152;49.190;8.122;2023-07-16T10:39:06;22.80;93.20
30186;DHT22;31152;49.190;8.122;2023-07-16T10:41:36;22.80;91.90
30186;DHT22;31152;49.190;8.122;2023-07-16T10:44:03;22.90;92.20
30186;DHT22;31152;49.190;8.122;2023-07-16T10:46:31;22.90;91.70
30186;DHT22;31152;49.190;8.122;2023-07-16T10:49:02;22.90;92.00
30186;DHT22;31152;49.190;8.122;2023-07-16T10:51:29;23.00;92.00
30186;DHT22;31152;49.190;8.122;2023-07-16T10:53:56;23.00;91.00
30186;DHT22;31152;49.190;8.122;2023-07-16T10:56:24;23.10;91.30
30186;DHT22;31152;49.190;8.122;2023-07-16T10:58:51;23.10;92.20
30186;DHT22;31152;49.190;8.122;2023-07-16T11:01:20;23.20;91.60
30186;DHT22;31152;49.190;8.122;2023-07-16T11:03:47;23.30;91.30
30186;DHT22;31152;49.190;8.122;2023-07-16T11:06:17;23.50;91.90
30186;DHT22;31152;49.190;8.122;2023-07-16T11:08:45;23.50;92.10
30186;DHT22;31152;49.190;8.122;2023-07-16T11:11:14;23.40;91.40
30186;DHT22;31152;49.190;8.122;2023-07-16T11:13:41;23.40;91.60
30186;DHT22;31152;49.190;8.122;2023-07-16T11:16:08;23.20;91.50
30186;DHT22;31152;49.190;8.122;2023-07-16T11:18:36;23.10;91.80
30186;DHT22;31152;49.190;8.122;2023-07-16T11:21:03;23.10;91.20
30186;DHT22;31152;49.190;8.122;2023-07-16T11:23:34;23.10;91.30
30186;DHT22;31152;49.190;8.122;2023-07-16T11:26:02;23.10;91.70
30186;DHT22;31152;49.190;8.122;2023-07-16T11:28:41;23.30;91.70
30186;DHT22;31152;49.190;8.122;2023-07-16T11:31:14;23.40;90.70
30186;DHT22;31152;49.190;8.122;2023-07-16T11:33:45;23.40;90.50
30186;DHT22;31152;49.190;8.122;2023-07-16T11:36:12;23.40;90.50
30186;DHT22;31152;49.190;8.122;2023-07-16T11:38:42;23.30;90.20
30186;DHT22;31152;49.190;8.122;2023-07-16T11:41:09;23.10;90.80
30186;DHT22;31152;49.190;8.122;2023-07-16T11:43:41;23.00;90.70
30186;DHT22;31152;49.190;8.122;2023-07-16T11:46:15;23.00;91.20
30186;DHT22;31152;49.190;8.122;2023-07-16T11:48:43;23.20;91.30
30186;DHT22;31152;49.190;8.122;2023-07-16T11:51:10;23.40;90.20
30186;DHT22;31152;49.190;8.122;2023-07-16T11:53:37;23.50;89.20
30186;DHT22;31152;49.190;8.122;2023-07-16T11:56:08;23.70;90.20
30186;DHT22;31152;49.190;8.122;2023-07-16T11:58:36;23.90;88.30
30186;DHT22;31152;49.190;8.122;2023-07-16T12:01:02;24.00;89.60
30186;DHT22;31152;49.190;8.122;2023-07-16T12:03:29;24.20;86.20
30186;DHT22;31152;49.190;8.122;2023-07-16T12:05:59;24.30;86.00
30186;DHT22;31152;49.190;8.122;2023-07-16T12:08:26;24.30;86.20
30186;DHT22;31152;49.190;8.122;2023-07-16T12:10:53;24.40;85.30
30186;DHT22;31152;49.190;8.122;2023-07-16T12:13:22;24.50;84.50
30186;DHT22;31152;49.190;8.122;2023-07-16T12:15:49;24.50;86.00
30186;DHT22;31152;49.190;8.122;2023-07-16T12:18:16;24.60;84.10
30186;DHT22;31152;49.190;8.122;2023-07-16T12:20:43;24.60;83.10
30186;DHT22;31152;49.190;8.122;2023-07-16T12:23:12;24.60;85.20
30186;DHT22;31152;49.190;8.122;2023-07-16T12:25:43;24.60;83.10
30186;DHT22;31152;49.190;8.122;2023-07-16T12:28:10;24.70;83.30
30186;DHT22;31152;49.190;8.122;2023-07-16T12:30:38;24.60;81.20
30186;DHT22;31152;49.190;8.122;2023-07-16T12:33:05;24.70;82.90
30186;DHT22;31152;49.190;8.122;2023-07-16T12:35:32;24.80;80.80
30186;DHT22;31152;49.190;8.122;2023-07-16T12:38:01;24.90;79.70
30186;DHT22;31152;49.190;8.122;2023-07-16T12:40:29;24.80;80.60
30186;DHT22;31152;49.190;8.122;2023-07-16T12:42:57;24.80;80.60
30186;DHT22;31152;49.190;8.122;2023-07-16T12:45:24;24.80;79.60
30186;DHT22;31152;49.190;8.122;2023-07-16T12:47:50;24.80;77.60
30186;DHT22;31152;49.190;8.122;2023-07-16T12:50:20;24.70;79.10
30186;DHT22;31152;49.190;8.122;2023-07-16T12:52:46;24.70;79.00
30186;DHT22;31152;49.190;8.122;2023-07-16T12:55:13;24.80;80.00
30186;DHT22;31152;49.190;8.122;2023-07-16T12:57:40;24.90;80.30
30186;DHT22;31152;49.190;8.122;2023-07-16T13:00:07;24.80;77.40
30186;DHT22;31152;49.190;8.122;2023-07-16T13:02:37;24.80;76.90
30186;DHT22;31152;49.190;8.122;2023-07-16T13:05:04;24.60;78.20
30186;DHT22;31152;49.190;8.122;2023-07-16T13:07:33;24.70;79.60
30186;DHT22;31152;49.190;8.122;2023-07-16T13:10:00;24.70;78.60
30186;DHT22;31152;49.190;8.122;2023-07-16T13:12:43;25.00;77.90
30186;DHT22;31152;49.190;8.122;2023-07-16T13:15:10;24.80;78.30
30186;DHT22;31152;49.190;8.122;2023-07-16T13:17:37;24.80;76.90
30186;DHT22;31152;49.190;8.122;2023-07-16T13:20:05;24.80;78.80
30186;DHT22;31152;49.190;8.122;2023-07-16T13:22:32;25.00;77.30
30186;DHT22;31152;49.190;8.122;2023-07-16T13:25:00;24.90;77.50
30186;DHT22;31152;49.190;8.122;2023-07-16T13:27:27;24.90;77.50
30186;DHT22;31152;49.190;8.122;2023-07-16T13:29:53;24.90;75.90
30186;DHT22;31152;49.190;8.122;2023-07-16T13:32:22;25.10;74.80
30186;DHT22;31152;49.190;8.122;2023-07-16T13:34:49;25.10;75.30
30186;DHT22;31152;49.190;8.122;2023-07-16T13:37:16;25.20;75.40
30186;DHT22;31152;49.190;8.122;2023-07-16T13:39:43;25.30;73.40
30186;DHT22;31152;49.190;8.122;2023-07-16T13:42:12;25.40;73.20
30186;DHT22;31152;49.190;8.122;2023-07-16T13:44:49;25.30;74.50
30186;DHT22;31152;49.190;8.122;2023-07-16T13:47:16;25.30;73.70
30186;DHT22;31152;49.190;8.122;2023-07-16T13:49:43;25.30;75.00
30186;DHT22;31152;49.190;8.122;2023-07-16T13:52:09;25.20;74.80
30186;DHT22;31152;49.190;8.122;2023-07-16T13:54:36;25.10;76.40
30186;DHT22;31152;49.190;8.122;2023-07-16T13:57:07;25.20;76.60
30186;DHT22;31152;49.190;8.122;2023-07-16T13:59:36;25.40;74.20
30186;DHT22;31152;49.190;8.122;2023-07-16T14:02:04;25.40;71.60
30186;DHT22;31152;49.190;8.122;2023-07-16T14:04:31;25.50;72.40
30186;DHT22;31152;49.190;8.122;2023-07-16T14:06:59;25.70;71.70
30186;DHT22;31152;49.190;8.122;2023-07-16T14:09:28;25.90;71.20
30186;DHT22;31152;49.190;8.122;2023-07-16T14:11:55;26.00;71.60
30186;DHT22;31152;49.190;8.122;2023-07-16T14:14:22;25.80;71.30
30186;DHT22;31152;49.190;8.122;2023-07-16T14:16:49;25.80;72.10
30186;DHT22;31152;49.190;8.122;2023-07-16T14:19:16;25.90;69.10
30186;DHT22;31152;49.190;8.122;2023-07-16T14:21:45;26.00;69.40
30186;DHT22;31152;49.190;8.122;2023-07-16T14:24:12;25.90;69.90
30186;DHT22;31152;49.190;8.122;2023-07-16T14:26:41;25.90;71.10
30186;DHT22;31152;49.190;8.122;2023-07-16T14:29:08;25.80;69.10
30186;DHT22;31152;49.190;8.122;2023-07-16T14:31:35;25.80;69.50
30186;DHT22;31152;49.190;8.122;2023-07-16T14:34:02;25.80;69.60
30186;DHT22;31152;49.190;8.122;2023-07-16T14:36:31;25.80;71.20
30186;DHT22;31152;49.190;8.122;2023-07-16T14:38:58;25.50;71.70
30186;DHT22;31152;49.190;8.122;2023-07-16T14:41:25;25.40;73.20
30186;DHT22;31152;49.190;8.122;2023-07-16T14:43:52;25.40;73.00
30186;DHT22;31152;49.190;8.122;2023-07-16T14:46:23;25.30;73.40
30186;DHT22;31152;49.190;8.122;2023-07-16T14:48:50;25.30;72.20
30186;DHT22;31152;49.190;8.122;2023-07-16T14:51:22;25.40;72.20
30186;DHT22;31152;49.190;8.122;2023-07-16T14:53:51;25.50;73.70
30186;DHT22;31152;49.190;8.122;2023-07-16T14:56:21;25.60;72.20
30186;DHT22;31152;49.190;8.122;2023-07-16T14:58:52;25.60;71.70
30186;DHT22;31152;49.190;8.122;2023-07-16T15:01:19;25.50;72.70
30186;DHT22;31152;49.190;8.122;2023-07-16T15:03:47;25.30;71.80
30186;DHT22;31152;49.190;8.122;2023-07-16T15:06:16;25.20;71.40
30186;DHT22;31152;49.190;8.122;2023-07-16T15:08:44;25.20;73.60
30186;DHT22;31152;49.190;8.122;2023-07-16T15:11:11;25.20;72.40
30186;DHT22;31152;49.190;8.122;2023-07-16T15:13:37;25.40;72.90
30186;DHT22;31152;49.190;8.122;2023-07-16T15:16:04;25.50;72.50
30186;DHT22;31152;49.190;8.122;2023-07-16T15:18:31;25.70;71.80
30186;DHT22;31152;49.190;8.122;2023-07-16T15:21:01;26.00;71.50
30186;DHT22;31152;49.190;8.122;2023-07-16T15:23:28;25.90;71.50
30186;DHT22;31152;49.190;8.122;2023-07-16T15:26:05;26.00;71.90
30186;DHT22;31152;49.190;8.122;2023-07-16T15:28:40;26.10;69.70
30186;DHT22;31152;49.190;8.122;2023-07-16T15:31:10;26.10;70.60
30186;DHT22;31152;49.190;8.122;2023-07-16T15:33:39;26.00;69.50
30186;DHT22;31152;49.190;8.122;2023-07-16T15:36:06;26.00;70.20
30186;DHT22;31152;49.190;8.122;2023-07-16T15:38:32;26.00;69.60